Time;durP1;ratioP1;P1;durP2;ratioP2;P2;SDS_P1;SDS_P2;PMS_P1;PMS_P2;Temp;Humidity;BMP_temperature;BMP_pressure;BME280_temperature;BME280_humidity;BME280_pressure;Samples;Min_cycle;Max_cycle;Signal;HPM_P1;HPM_P2
2021/05/12 00:01:42;;;;;;;3.30;0.90;;;12.20;99.90;;;;;;5053098;28;20639;-67
2021/05/12 00:04:07;;;;;;;3.40;0.90;;;12.20;99.90;;;;;;5051149;28;20193;-67
2021/05/12 00:06:33;;;;;;;3.50;1.13;;;12.20;99.90;;;;;;5033284;28;20170;-68
2021/05/12 00:08:59;;;;;;;3.77;0.80;;;12.20;99.90;;;;;;5033487;28;20173;-68
2021/05/12 00:11:25;;;;;;;3.60;1.20;;;12.20;99.90;;;;;;5049934;28;20234;-67
2021/05/12 00:13:51;;;;;;;3.55;1.05;;;12.20;99.90;;;;;;5051309;28;20173;-66
2021/05/12 00:16:17;;;;;;;4.03;1.20;;;12.10;99.90;;;;;;5033931;28;20257;-68
2021/05/12 00:18:45;;;;;;;3.92;1.30;;;12.10;99.90;;;;;;5033216;28;20898;-68
2021/05/12 00:21:17;;;;;;;3.90;1.05;;;12.10;99.90;;;;;;5049489;28;20196;-70
2021/05/12 00:23:57;;;;;;;3.97;1.00;;;12.20;99.90;;;;;;5052675;28;20200;-67
2021/05/12 00:26:22;;;;;;;4.78;1.48;;;12.10;99.90;;;;;;5034820;28;20208;-67
2021/05/12 00:28:48;;;;;;;3.33;1.20;;;12.20;99.90;;;;;;5033112;28;20170;-68
2021/05/12 00:31:14;;;;;;;3.30;1.00;;;12.20;99.90;;;;;;5048722;28;20205;-68
2021/05/12 00:33:39;;;;;;;4.50;1.43;;;12.20;99.90;;;;;;5052612;28;20181;-68
2021/05/12 00:36:05;;;;;;;4.50;1.50;;;12.20;99.90;;;;;;5051121;28;20240;-67
2021/05/12 00:38:31;;;;;;;4.38;1.27;;;12.10;99.90;;;;;;5052873;28;20674;-67
2021/05/12 00:40:57;;;;;;;4.03;1.27;;;12.20;99.90;;;;;;5039954;28;20222;-68
2021/05/12 00:43:23;;;;;;;3.40;0.90;;;12.20;99.90;;;;;;5032601;28;20204;-68
2021/05/12 00:45:48;;;;;;;3.40;1.07;;;12.20;99.90;;;;;;5043459;28;20209;-68
2021/05/12 00:48:14;;;;;;;3.27;1.23;;;12.20;99.90;;;;;;5052757;28;20416;-68
2021/05/12 00:50:40;;;;;;;3.57;1.23;;;12.20;99.90;;;;;;5043688;28;20254;-68
2021/05/12 00:53:07;;;;;;;3.60;1.13;;;12.20;99.90;;;;;;5032495;28;20420;-67
2021/05/12 00:55:33;;;;;;;3.33;1.00;;;12.20;99.90;;;;;;5040094;28;20439;-68
2021/05/12 00:57:59;;;;;;;3.65;1.23;;;12.20;99.90;;;;;;5052575;28;20223;-69
2021/05/12 01:00:28;;;;;;;3.70;1.10;;;12.20;99.90;;;;;;5046273;28;20182;-68
2021/05/12 01:02:53;;;;;;;3.45;1.15;;;12.10;99.90;;;;;;5032905;28;20464;-68
2021/05/12 01:05:25;;;;;;;3.20;1.03;;;12.10;99.90;;;;;;5041851;28;20193;-68
2021/05/12 01:07:50;;;;;;;3.50;1.13;;;12.10;99.90;;;;;;5052884;28;20170;-69
2021/05/12 01:10:16;;;;;;;3.20;1.10;;;12.10;99.90;;;;;;5043611;28;20660;-67
2021/05/12 01:12:42;;;;;;;5.33;2.30;;;12.00;99.90;;;;;;5050813;28;20173;-67
2021/05/12 01:15:08;;;;;;;3.77;1.40;;;12.00;99.90;;;;;;5048048;28;20198;-67
2021/05/12 01:17:34;;;;;;;4.22;1.52;;;12.00;99.90;;;;;;5036230;28;20166;-67
2021/05/12 01:19:59;;;;;;;3.40;1.10;;;11.90;99.90;;;;;;5037101;28;20268;-67
2021/05/12 01:22:25;;;;;;;3.37;1.00;;;11.90;99.90;;;;;;5036251;28;20197;-67
2021/05/12 01:24:50;;;;;;;5.67;1.47;;;11.90;99.90;;;;;;5039229;28;20671;-67
2021/05/12 01:27:17;;;;;;;3.40;1.10;;;11.80;99.90;;;;;;5055902;28;20554;-67
2021/05/12 01:29:43;;;;;;;4.05;1.38;;;11.80;99.90;;;;;;5051250;28;20587;-68
2021/05/12 01:32:09;;;;;;;4.07;0.90;;;11.80;99.90;;;;;;5037087;28;20209;-67
2021/05/12 01:34:35;;;;;;;4.75;1.45;;;11.70;99.90;;;;;;5037945;28;20260;-68
2021/05/12 01:37:01;;;;;;;4.80;1.20;;;11.70;99.90;;;;;;5056090;28;20173;-68
2021/05/12 01:39:27;;;;;;;3.87;1.17;;;11.70;99.90;;;;;;5054343;28;20161;-68
2021/05/12 01:41:52;;;;;;;5.70;1.70;;;11.70;99.90;;;;;;5035824;28;20174;-68
2021/05/12 01:44:18;;;;;;;3.90;1.07;;;11.70;99.90;;;;;;5035262;28;20457;-69
2021/05/12 01:46:48;;;;;;;3.07;0.77;;;11.70;99.90;;;;;;5046033;28;20169;-69
2021/05/12 01:49:14;;;;;;;4.63;1.65;;;11.60;99.90;;;;;;5018708;28;20632;-69
2021/05/12 01:51:40;;;;;;;3.78;0.80;;;11.60;99.90;;;;;;5053665;28;20186;-68
2021/05/12 01:54:08;;;;;;;4.03;1.47;;;11.60;99.90;;;;;;5055023;28;20173;-68
2021/05/12 01:56:38;;;;;;;3.40;1.00;;;11.50;99.90;;;;;;5038230;28;20196;-68
2021/05/12 01:59:06;;;;;;;3.72;1.40;;;11.50;99.90;;;;;;5042602;28;20528;-67
2021/05/12 02:01:32;;;;;;;4.95;1.50;;;11.50;99.90;;;;;;5055033;28;20180;-68
2021/05/12 02:04:06;;;;;;;3.60;1.15;;;11.50;99.90;;;;;;5036554;28;20688;-68
2021/05/12 02:06:32;;;;;;;5.07;1.20;;;11.50;99.90;;;;;;5035613;28;20547;-68
2021/05/12 02:08:59;;;;;;;3.88;1.42;;;11.50;99.90;;;;;;5052111;28;20177;-67
2021/05/12 02:11:25;;;;;;;3.60;1.20;;;11.50;99.90;;;;;;5055103;28;20532;-68
2021/05/12 02:13:51;;;;;;;3.53;1.30;;;11.40;99.90;;;;;;5052707;28;20181;-65
2021/05/12 02:16:16;;;;;;;4.50;1.90;;;11.40;99.90;;;;;;5046156;28;20185;-68
2021/05/12 02:18:42;;;;;;;4.63;1.20;;;11.40;99.90;;;;;;5050038;28;20181;-67
2021/05/12 02:21:08;;;;;;;4.30;1.93;;;11.40;99.90;;;;;;5042868;28;20188;-69
2021/05/12 02:23:34;;;;;;;4.45;1.65;;;11.40;99.90;;;;;;5048002;28;20592;-69
2021/05/12 02:26:00;;;;;;;5.18;2.25;;;11.40;99.90;;;;;;5055354;28;20705;-68
2021/05/12 02:28:26;;;;;;;3.87;1.80;;;11.30;99.90;;;;;;5043798;28;20182;-68
2021/05/12 02:30:52;;;;;;;4.10;1.73;;;11.30;99.90;;;;;;5042875;28;20181;-68
2021/05/12 02:33:18;;;;;;;4.33;1.50;;;11.30;99.90;;;;;;5045001;28;20190;-68
2021/05/12 02:35:45;;;;;;;3.40;1.13;;;11.30;99.90;;;;;;5034877;28;20421;-68
2021/05/12 02:38:11;;;;;;;4.43;1.92;;;11.30;99.90;;;;;;5034809;28;20425;-68
2021/05/12 02:40:37;;;;;;;4.37;1.40;;;11.30;99.90;;;;;;5028628;28;20242;-68
2021/05/12 02:43:04;;;;;;;6.18;2.80;;;11.30;99.90;;;;;;5048153;28;20480;-71
2021/05/12 02:45:33;;;;;;;4.85;1.70;;;11.30;99.90;;;;;;5041003;28;20315;-68
2021/05/12 02:48:01;;;;;;;4.68;2.30;;;11.20;99.90;;;;;;5049329;28;20174;-70
2021/05/12 02:50:32;;;;;;;4.10;2.30;;;11.30;99.90;;;;;;5034655;28;20170;-69
2021/05/12 02:52:58;;;;;;;6.45;1.90;;;11.20;99.90;;;;;;5038244;28;20169;-68
2021/05/12 02:55:25;;;;;;;5.15;1.88;;;11.20;99.90;;;;;;5053837;28;20263;-69
2021/05/12 02:57:51;;;;;;;4.07;1.52;;;11.20;99.90;;;;;;5051638;28;20207;-68
2021/05/12 03:00:19;;;;;;;4.75;2.58;;;11.20;99.90;;;;;;5041144;28;20180;-68
2021/05/12 03:02:45;;;;;;;4.53;2.10;;;11.20;99.90;;;;;;5052216;28;20610;-69
2021/05/12 03:05:12;;;;;;;4.60;1.87;;;11.20;99.90;;;;;;5033891;28;20333;-69
2021/05/12 03:07:37;;;;;;;4.00;1.77;;;11.20;99.90;;;;;;5034249;28;20228;-69
2021/05/12 03:10:06;;;;;;;5.63;2.70;;;11.20;99.90;;;;;;5048477;28;20170;-69
2021/05/12 03:12:32;;;;;;;4.20;2.05;;;11.20;99.90;;;;;;5034169;28;20185;-69
2021/05/12 03:14:58;;;;;;;4.70;2.47;;;11.20;99.90;;;;;;5051341;28;20240;-69
2021/05/12 03:17:23;;;;;;;5.70;2.50;;;11.20;99.90;;;;;;5054105;28;20805;-70
2021/05/12 03:19:49;;;;;;;5.87;2.17;;;11.10;99.90;;;;;;5037072;28;20184;-68
2021/05/12 03:22:15;;;;;;;7.10;2.00;;;11.20;99.90;;;;;;5034000;28;20185;-69
2021/05/12 03:24:40;;;;;;;4.93;2.33;;;11.20;99.90;;;;;;5047858;28;20205;-69
2021/05/12 03:27:06;;;;;;;4.00;1.93;;;11.20;99.90;;;;;;5053609;28;20212;-69
2021/05/12 03:29:32;;;;;;;5.10;2.15;;;11.20;99.90;;;;;;5022370;28;20640;-69
2021/05/12 03:31:58;;;;;;;3.90;1.87;;;11.20;99.90;;;;;;5033959;28;20170;-69
2021/05/12 03:34:23;;;;;;;5.50;2.63;;;11.10;99.90;;;;;;5044642;28;20439;-70
2021/05/12 03:36:49;;;;;;;5.93;2.67;;;11.20;99.90;;;;;;5053229;28;20248;-68
2021/05/12 03:39:15;;;;;;;6.10;2.43;;;11.20;99.90;;;;;;5045521;28;20182;-70
2021/05/12 03:41:40;;;;;;;10.43;4.57;;;11.20;99.90;;;;;;5053089;28;20185;-70
2021/05/12 03:44:06;;;;;;;5.80;2.80;;;11.20;99.90;;;;;;5044123;28;20255;-69
2021/05/12 03:46:32;;;;;;;6.07;2.47;;;11.20;99.90;;;;;;5033694;28;20181;-69
2021/05/12 03:48:57;;;;;;;6.30;1.80;;;11.20;99.90;;;;;;5033907;28;20178;-69
2021/05/12 03:51:23;;;;;;;7.30;3.50;;;11.20;99.90;;;;;;5036351;28;20180;-70
2021/05/12 03:53:48;;;;;;;6.03;3.23;;;11.20;99.90;;;;;;5052163;28;20524;-69
2021/05/12 03:56:14;;;;;;;4.20;2.00;;;11.20;99.90;;;;;;5050643;28;20196;-70
2021/05/12 03:58:40;;;;;;;8.03;2.67;;;11.20;99.90;;;;;;5033081;28;20210;-70
2021/05/12 04:01:05;;;;;;;7.10;3.43;;;11.20;99.90;;;;;;5033323;28;20710;-69
2021/05/12 04:03:32;;;;;;;5.13;2.50;;;11.20;99.90;;;;;;5040856;28;20271;-69
2021/05/12 04:05:57;;;;;;;8.95;3.88;;;11.20;99.90;;;;;;5034261;28;20548;-69
2021/05/12 04:08:24;;;;;;;7.60;3.20;;;11.20;99.90;;;;;;5053221;28;20170;-69
2021/05/12 04:10:51;;;;;;;7.55;2.75;;;11.20;99.90;;;;;;5052876;28;20223;-69
2021/05/12 04:13:21;;;;;;;5.20;2.28;;;11.30;99.90;;;;;;5015221;28;20741;-67
2021/05/12 04:15:48;;;;;;;6.30;3.10;;;11.30;99.90;;;;;;5033289;28;20659;-68
2021/05/12 04:18:14;;;;;;;6.55;2.97;;;11.30;99.90;;;;;;5051563;28;20181;-68
2021/05/12 04:20:40;;;;;;;8.43;3.08;;;11.30;99.90;;;;;;5052233;28;20173;-68
2021/05/12 04:23:05;;;;;;;9.17;3.23;;;11.30;99.90;;;;;;5035162;28;20200;-69
2021/05/12 04:25:32;;;;;;;5.73;3.13;;;11.30;99.90;;;;;;5032917;28;20555;-69
2021/05/12 04:27:58;;;;;;;9.13;4.25;;;11.30;99.90;;;;;;5048829;28;20169;-68
2021/05/12 04:30:25;;;;;;;5.70;3.30;;;11.30;99.90;;;;;;5052902;28;20185;-67
2021/05/12 04:32:50;;;;;;;5.90;2.90;;;11.30;99.90;;;;;;5048526;28;20161;-69
2021/05/12 04:35:19;;;;;;;6.40;2.40;;;11.30;99.90;;;;;;5052583;28;20239;-68
2021/05/12 04:37:46;;;;;;;7.43;3.40;;;11.30;99.90;;;;;;5039763;28;20421;-68
2021/05/12 04:40:13;;;;;;;7.72;3.42;;;11.40;99.90;;;;;;5034905;28;20701;-68
2021/05/12 04:42:38;;;;;;;6.32;3.40;;;11.30;99.90;;;;;;5041387;28;20178;-67
2021/05/12 04:45:06;;;;;;;8.30;3.50;;;11.30;99.90;;;;;;5032700;28;20551;-67
2021/05/12 04:47:32;;;;;;;7.10;2.85;;;11.40;99.90;;;;;;5042718;28;20251;-67
2021/05/12 04:49:57;;;;;;;6.20;3.00;;;11.40;99.90;;;;;;5056643;28;20173;-67
2021/05/12 04:52:23;;;;;;;16.57;3.50;;;11.40;99.90;;;;;;5048252;28;20170;-69
2021/05/12 04:54:48;;;;;;;8.70;3.47;;;11.40;99.90;;;;;;5036291;28;20587;-68
2021/05/12 04:57:14;;;;;;;7.00;3.50;;;11.40;99.90;;;;;;5042826;28;20178;-68
2021/05/12 04:59:40;;;;;;;6.27;3.40;;;11.40;99.90;;;;;;5056145;28;20201;-68
2021/05/12 05:02:07;;;;;;;5.00;2.33;;;11.40;99.90;;;;;;5051678;28;20687;-69
2021/05/12 05:04:32;;;;;;;5.20;3.15;;;11.40;99.90;;;;;;5035928;28;20210;-68
2021/05/12 05:06:58;;;;;;;5.00;3.13;;;11.40;99.90;;;;;;5039699;28;20519;-69
2021/05/12 05:09:23;;;;;;;7.03;2.63;;;11.40;99.90;;;;;;5056774;28;20165;-69
2021/05/12 05:11:49;;;;;;;6.90;2.97;;;11.40;99.90;;;;;;5037708;28;20170;-69
2021/05/12 05:14:15;;;;;;;9.80;3.60;;;11.40;99.90;;;;;;5056130;28;20272;-70
2021/05/12 05:16:41;;;;;;;4.93;2.13;;;11.50;99.90;;;;;;5056737;28;20169;-68
2021/05/12 05:19:06;;;;;;;5.30;2.63;;;11.50;99.90;;;;;;5036909;28;20185;-68
2021/05/12 05:21:32;;;;;;;5.80;3.20;;;11.40;99.90;;;;;;5036342;28;20537;-69
2021/05/12 05:23:58;;;;;;;5.13;2.60;;;11.40;99.90;;;;;;5035581;28;20244;-68
2021/05/12 05:26:24;;;;;;;5.90;3.15;;;11.40;99.90;;;;;;5036203;28;20476;-69
2021/05/12 05:28:50;;;;;;;18.60;2.77;;;11.40;99.90;;;;;;5039347;28;20188;-69
2021/05/12 05:31:16;;;;;;;6.60;3.00;;;11.40;99.90;;;;;;5036119;28;20484;-71
2021/05/12 05:33:42;;;;;;;7.00;2.13;;;11.50;99.90;;;;;;5044527;28;20183;-68
2021/05/12 05:36:08;;;;;;;8.80;3.17;;;11.40;99.90;;;;;;5055921;28;20222;-69
2021/05/12 05:38:34;;;;;;;5.03;2.60;;;11.40;99.90;;;;;;5037330;28;20189;-66
2021/05/12 05:40:59;;;;;;;6.43;2.53;;;11.50;99.90;;;;;;5035718;28;20240;-69
2021/05/12 05:43:27;;;;;;;6.07;3.53;;;11.50;99.90;;;;;;5050498;28;20272;-66
2021/05/12 05:45:52;;;;;;;5.00;2.45;;;11.50;99.90;;;;;;5055555;28;20648;-69
2021/05/12 05:48:18;;;;;;;6.67;2.27;;;11.50;99.90;;;;;;5048988;28;20176;-67
2021/05/12 05:50:44;;;;;;;5.27;2.57;;;11.50;99.90;;;;;;5053975;28;20558;-69
2021/05/12 05:53:09;;;;;;;8.27;2.43;;;11.50;99.90;;;;;;5055380;28;20173;-69
2021/05/12 05:55:35;;;;;;;6.07;2.60;;;11.50;99.90;;;;;;5043845;28;20197;-70
2021/05/12 05:58:01;;;;;;;6.30;1.97;;;11.60;99.90;;;;;;5052990;28;20178;-67
2021/05/12 06:00:27;;;;;;;5.65;1.77;;;11.50;99.90;;;;;;5045052;28;20583;-68
2021/05/12 06:02:53;;;;;;;6.23;2.43;;;11.50;99.90;;;;;;5035307;28;20183;-68
2021/05/12 06:05:19;;;;;;;5.10;2.00;;;11.50;99.90;;;;;;5042178;28;20477;-66
2021/05/12 06:07:44;;;;;;;5.10;1.87;;;11.50;99.90;;;;;;5055248;28;20174;-66
2021/05/12 06:10:10;;;;;;;5.70;2.17;;;11.60;99.90;;;;;;5049124;28;20162;-68
2021/05/12 06:12:37;;;;;;;5.80;2.53;;;11.50;99.90;;;;;;5052169;28;20211;-67
2021/05/12 06:15:04;;;;;;;5.25;2.70;;;11.50;99.90;;;;;;5050300;28;20694;-68
2021/05/12 06:17:30;;;;;;;5.07;1.95;;;11.50;99.90;;;;;;5035194;28;20166;-67
2021/05/12 06:19:56;;;;;;;6.45;2.55;;;11.60;99.90;;;;;;5038471;28;20169;-69
2021/05/12 06:22:21;;;;;;;5.37;2.30;;;11.60;99.90;;;;;;5035136;28;20167;-68
2021/05/12 06:24:47;;;;;;;6.87;2.57;;;11.60;99.90;;;;;;5035281;28;20205;-66
2021/05/12 06:27:13;;;;;;;6.73;2.20;;;11.60;99.90;;;;;;5033405;28;20184;-67
2021/05/12 06:29:38;;;;;;;5.67;2.97;;;11.70;99.90;;;;;;5017121;28;20185;-67
2021/05/12 06:32:07;;;;;;;6.70;1.97;;;11.70;99.90;;;;;;5035944;28;20228;-68
2021/05/12 06:34:34;;;;;;;7.25;2.35;;;11.70;99.90;;;;;;5039075;28;20200;-67
2021/05/12 06:37:02;;;;;;;6.50;2.70;;;11.70;99.90;;;;;;5036458;28;20182;-68
2021/05/12 06:39:28;;;;;;;5.97;1.77;;;11.70;99.90;;;;;;5035865;28;20177;-67
2021/05/12 06:41:54;;;;;;;6.20;2.78;;;11.70;99.90;;;;;;5054712;28;20175;-68
2021/05/12 06:44:23;;;;;;;5.00;1.55;;;11.80;99.90;;;;;;5044720;28;20221;-66
2021/05/12 06:46:51;;;;;;;5.85;2.20;;;11.70;99.90;;;;;;5034393;28;20587;-70
2021/05/12 06:49:17;;;;;;;6.35;2.40;;;11.70;99.90;;;;;;5040195;28;20520;-66
2021/05/12 06:51:42;;;;;;;6.57;2.80;;;11.80;99.90;;;;;;5054634;28;20245;-65
2021/05/12 06:54:08;;;;;;;7.93;2.33;;;11.70;99.90;;;;;;5040824;28;20420;-67
2021/05/12 06:56:34;;;;;;;5.37;2.60;;;11.80;99.90;;;;;;5034461;28;20532;-64
2021/05/12 06:58:59;;;;;;;5.43;2.23;;;11.80;99.90;;;;;;5035200;28;20171;-66
2021/05/12 07:01:25;;;;;;;6.00;2.43;;;11.90;99.90;;;;;;5036376;28;20178;-66
2021/05/12 07:03:51;;;;;;;6.63;2.83;;;12.00;99.90;;;;;;5041646;28;20233;-68
2021/05/12 07:06:17;;;;;;;4.95;1.70;;;11.90;99.90;;;;;;5035222;28;20197;-67
2021/05/12 07:08:47;;;;;;;6.07;1.30;;;12.00;99.90;;;;;;5036236;28;20181;-69
2021/05/12 07:11:13;;;;;;;5.95;1.70;;;11.90;99.90;;;;;;5046959;28;20234;-69
2021/05/12 07:13:39;;;;;;;8.60;2.07;;;12.00;99.90;;;;;;5053365;28;20173;-68
2021/05/12 07:16:05;;;;;;;4.93;1.53;;;12.00;99.90;;;;;;5053727;28;20915;-70
2021/05/12 07:18:32;;;;;;;6.40;2.40;;;12.10;99.90;;;;;;5053767;28;20201;-70
2021/05/12 07:20:58;;;;;;;5.00;1.50;;;12.00;99.90;;;;;;5054122;28;20177;-71
2021/05/12 07:23:26;;;;;;;5.63;1.70;;;12.10;99.90;;;;;;5053006;28;20209;-70
2021/05/12 07:25:55;;;;;;;5.90;2.03;;;12.10;99.90;;;;;;5053386;28;20988;-70
2021/05/12 07:28:20;;;;;;;7.60;2.00;;;12.10;99.90;;;;;;5053719;28;20174;-70
2021/05/12 07:30:47;;;;;;;5.77;1.80;;;12.10;99.90;;;;;;5035627;28;20177;-70
2021/05/12 07:33:12;;;;;;;4.90;1.50;;;12.20;99.90;;;;;;5053154;28;20170;-71
2021/05/12 07:35:39;;;;;;;7.47;1.83;;;12.10;99.90;;;;;;5052876;28;20547;-69
2021/05/12 07:38:05;;;;;;;4.90;1.83;;;12.20;99.90;;;;;;5042991;28;20522;-68
2021/05/12 07:40:33;;;;;;;6.30;2.22;;;12.20;99.90;;;;;;5033788;28;20838;-66
2021/05/12 07:43:01;;;;;;;5.82;1.73;;;12.30;99.90;;;;;;5033261;28;20670;-66
2021/05/12 07:45:30;;;;;;;6.25;1.77;;;12.40;99.90;;;;;;5033244;28;20195;-70
2021/05/12 07:47:56;;;;;;;5.78;1.48;;;12.30;99.90;;;;;;5033427;28;20230;-69
2021/05/12 07:50:22;;;;;;;6.00;1.70;;;12.40;99.90;;;;;;5033038;28;20175;-69
2021/05/12 07:52:47;;;;;;;5.83;2.30;;;12.40;99.90;;;;;;5015798;28;20222;-71
2021/05/12 07:55:13;;;;;;;6.00;1.80;;;12.40;99.90;;;;;;5033174;28;20944;-70
2021/05/12 07:57:39;;;;;;;8.53;2.33;;;12.40;99.90;;;;;;5041976;28;20173;-70
2021/05/12 08:00:07;;;;;;;5.50;1.85;;;12.50;99.90;;;;;;5053241;28;20415;-70
2021/05/12 08:02:33;;;;;;;5.93;1.90;;;12.60;99.90;;;;;;5053847;28;20177;-70
2021/05/12 08:04:58;;;;;;;5.43;1.57;;;12.60;99.90;;;;;;5051482;28;20465;-70
2021/05/12 08:07:24;;;;;;;5.37;1.47;;;12.50;99.90;;;;;;5052996;28;20178;-69
2021/05/12 08:09:50;;;;;;;6.77;2.03;;;12.50;99.90;;;;;;5053182;28;20229;-68
2021/05/12 08:12:15;;;;;;;5.47;1.93;;;12.50;99.90;;;;;;5052993;28;20245;-69
2021/05/12 08:14:41;;;;;;;9.40;1.87;;;12.50;99.90;;;;;;5052749;28;20200;-66
2021/05/12 08:17:07;;;;;;;5.70;2.17;;;12.50;99.90;;;;;;5053045;28;20178;-69
2021/05/12 08:19:33;;;;;;;4.67;1.40;;;12.50;99.90;;;;;;5053089;28;20250;-70
2021/05/12 08:22:05;;;;;;;5.50;1.80;;;12.60;99.90;;;;;;5036291;28;20212;-69
2021/05/12 08:24:31;;;;;;;5.60;1.75;;;12.50;99.90;;;;;;5036835;28;20456;-69
2021/05/12 08:26:57;;;;;;;5.27;1.83;;;12.50;99.90;;;;;;5057778;28;20188;-70
2021/05/12 08:29:24;;;;;;;5.23;1.50;;;12.50;99.90;;;;;;5057455;28;20489;-68
2021/05/12 08:31:49;;;;;;;5.53;2.10;;;12.50;99.90;;;;;;5057130;28;20405;-68
2021/05/12 08:34:15;;;;;;;5.60;1.93;;;12.50;99.90;;;;;;5038640;28;20437;-68
2021/05/12 08:36:41;;;;;;;5.00;1.80;;;12.60;99.90;;;;;;5039851;28;20179;-69
2021/05/12 08:39:08;;;;;;;5.40;1.30;;;12.60;99.90;;;;;;5036956;28;20176;-68
2021/05/12 08:41:35;;;;;;;7.00;1.88;;;12.60;99.90;;;;;;5037040;28;20176;-70
2021/05/12 08:44:04;;;;;;;5.05;1.52;;;12.70;99.90;;;;;;5044929;28;20627;-67
2021/05/12 08:46:30;;;;;;;7.70;1.50;;;12.70;99.90;;;;;;5056835;28;20163;-69
2021/05/12 08:48:58;;;;;;;8.10;1.33;;;12.80;99.90;;;;;;5056798;28;20202;-69
2021/05/12 08:51:26;;;;;;;6.10;1.97;;;12.80;99.90;;;;;;5056756;28;20400;-68
2021/05/12 08:53:54;;;;;;;5.27;1.53;;;12.90;99.90;;;;;;5056447;28;20403;-70
2021/05/12 08:56:21;;;;;;;6.50;1.63;;;13.00;99.90;;;;;;5042041;28;20475;-69
2021/05/12 08:58:46;;;;;;;5.30;1.80;;;13.00;99.90;;;;;;5036710;28;20920;-69
2021/05/12 09:01:14;;;;;;;6.73;1.67;;;13.00;99.90;;;;;;5036778;28;20449;-69
2021/05/12 09:03:41;;;;;;;4.50;0.90;;;13.00;99.90;;;;;;5036040;28;20188;-70
2021/05/12 09:06:08;;;;;;;5.40;1.87;;;13.00;99.90;;;;;;5036599;28;20488;-69
2021/05/12 09:08:34;;;;;;;8.90;1.83;;;13.00;99.90;;;;;;5036603;28;20511;-68
2021/05/12 09:10:59;;;;;;;5.73;1.80;;;13.10;99.90;;;;;;5036535;28;20492;-69
2021/05/12 09:13:39;;;;;;;5.30;1.50;;;13.10;99.90;;;;;;5036150;28;20172;-68
2021/05/12 09:16:20;;;;;;;7.83;2.63;;;13.10;99.90;;;;;;5036423;28;20201;-68
2021/05/12 09:18:46;;;;;;;5.67;1.47;;;13.10;99.90;;;;;;5044214;28;20789;-69
2021/05/12 09:21:13;;;;;;;6.43;2.20;;;13.10;99.90;;;;;;5037698;28;20421;-68
2021/05/12 09:23:40;;;;;;;8.13;1.53;;;13.10;99.90;;;;;;5055985;28;20512;-68
2021/05/12 09:26:16;;;;;;;7.63;2.80;;;13.00;99.90;;;;;;5055783;28;20451;-67
2021/05/12 09:28:43;;;;;;;5.37;1.63;;;13.00;99.90;;;;;;5016475;28;20485;-70
2021/05/12 09:31:11;;;;;;;5.20;1.80;;;13.00;99.90;;;;;;5016656;28;20439;-72
2021/05/12 09:33:39;;;;;;;5.80;1.43;;;13.00;99.90;;;;;;5014870;28;20497;-69
2021/05/12 09:36:06;;;;;;;6.67;2.07;;;13.00;99.90;;;;;;5016151;28;20426;-71
2021/05/12 09:38:33;;;;;;;6.53;2.10;;;13.00;99.90;;;;;;5015730;28;20415;-69
2021/05/12 09:41:05;;;;;;;5.73;1.80;;;13.00;99.90;;;;;;5015982;28;20774;-69
2021/05/12 09:43:32;;;;;;;5.67;1.70;;;13.10;99.90;;;;;;5014143;28;20814;-70
2021/05/12 09:46:22;;;;;;;7.47;2.03;;;13.00;99.90;;;;;;5015938;28;20420;-69
2021/05/12 09:49:00;;;;;;;5.60;1.53;;;13.10;99.90;;;;;;5016040;28;20423;-71
2021/05/12 09:51:37;;;;;;;6.13;3.80;;;13.00;99.90;;;;;;5048940;28;20431;-71
2021/05/12 09:54:14;;;;;;;7.30;1.90;;;12.90;99.90;;;;;;5037224;28;20418;-70
2021/05/12 09:56:43;;;;;;;6.37;2.30;;;12.90;99.90;;;;;;5055559;28;20404;-71
2021/05/12 09:59:29;;;;;;;9.20;2.57;;;12.80;99.90;;;;;;5055391;28;20416;-72
2021/05/12 10:01:59;;;;;;;7.33;2.13;;;12.80;99.90;;;;;;5055470;28;20432;-70
2021/05/12 10:04:39;;;;;;;4.83;1.43;;;12.80;99.90;;;;;;5053213;28;20459;-70
2021/05/12 10:07:17;;;;;;;6.57;1.90;;;12.80;99.90;;;;;;5035692;28;20401;-73
2021/05/12 10:09:44;;;;;;;5.30;1.53;;;12.90;99.90;;;;;;5035381;28;20749;-73
2021/05/12 10:12:17;;;;;;;5.53;1.83;;;12.90;99.90;;;;;;5035516;28;20408;-69
2021/05/12 10:14:45;;;;;;;5.20;1.60;;;12.90;99.90;;;;;;5034860;28;20429;-69
2021/05/12 10:17:14;;;;;;;6.93;2.00;;;13.00;99.90;;;;;;5035193;28;20405;-69
2021/05/12 10:19:40;;;;;;;5.10;1.50;;;13.10;99.90;;;;;;5021513;28;20501;-69
2021/05/12 10:22:06;;;;;;;7.27;1.80;;;13.20;99.90;;;;;;5055065;28;20417;-64
2021/05/12 10:24:34;;;;;;;7.50;1.50;;;13.30;99.90;;;;;;5053792;28;20457;-68
2021/05/12 10:27:03;;;;;;;8.80;1.67;;;13.40;99.90;;;;;;5054674;28;20555;-67
2021/05/12 10:29:31;;;;;;;4.53;1.37;;;13.60;99.90;;;;;;5038599;28;20817;-65
2021/05/12 10:31:57;;;;;;;5.17;1.67;;;13.80;99.90;;;;;;5015288;28;20435;-70
2021/05/12 10:34:39;;;;;;;4.93;1.30;;;14.00;99.90;;;;;;5014815;28;20436;-68
2021/05/12 10:37:37;;;;;;;4.93;1.50;;;14.20;99.90;;;;;;5015176;28;20494;-69
2021/05/12 10:40:23;;;;;;;5.70;1.33;;;14.30;99.90;;;;;;4993151;28;20897;-70
2021/05/12 10:45:43;;;;;;;6.20;1.67;;;14.40;99.90;;;;;;5054628;28;20538;-66
2021/05/12 10:48:32;;;;;;;5.83;1.30;;;14.60;99.90;;;;;;5054713;28;20406;-67
2021/05/12 10:51:00;;;;;;;7.00;1.90;;;14.70;99.90;;;;;;5054699;28;20396;-68
2021/05/12 10:53:34;;;;;;;7.50;1.80;;;14.70;99.90;;;;;;5054001;28;20447;-68
2021/05/12 10:56:04;;;;;;;5.30;2.10;;;14.70;99.90;;;;;;5054072;28;20457;-68
2021/05/12 10:58:32;;;;;;;6.80;1.83;;;14.70;99.90;;;;;;5035876;28;20469;-68
2021/05/12 11:01:04;;;;;;;4.60;1.50;;;14.70;99.90;;;;;;5053599;28;20510;-69
2021/05/12 11:03:52;;;;;;;5.70;2.20;;;14.70;99.90;;;;;;5052687;28;20458;-70
2021/05/12 11:06:43;;;;;;;7.10;2.30;;;14.80;99.90;;;;;;5044294;28;20443;-68
2021/05/12 11:09:25;;;;;;;7.90;1.70;;;14.70;99.90;;;;;;5053689;28;20449;-67
2021/05/12 11:11:55;;;;;;;5.87;2.00;;;14.70;99.90;;;;;;5034142;28;20778;-69
2021/05/12 11:14:22;;;;;;;8.53;2.87;;;14.60;99.90;;;;;;5031500;28;20435;-70
2021/05/12 11:17:13;;;;;;;5.70;2.07;;;14.60;99.90;;;;;;5015293;28;20427;-67
2021/05/12 11:20:03;;;;;;;5.67;1.70;;;14.50;99.90;;;;;;5033821;28;20410;-69
2021/05/12 11:22:43;;;;;;;6.33;1.73;;;14.50;99.90;;;;;;5033768;28;20412;-67
2021/05/12 11:25:36;;;;;;;5.33;2.00;;;14.60;99.90;;;;;;5033195;28;20558;-70
2021/05/12 11:33:29;;;;;;;6.30;2.50;;;14.80;99.90;;;;;;5033636;28;20764;-67
2021/05/12 11:36:06;;;;;;;7.23;2.90;;;14.80;99.90;;;;;;5033515;28;20515;-68
2021/05/12 11:38:32;;;;;;;5.77;1.80;;;14.90;99.90;;;;;;5040603;28;20418;-67
2021/05/12 11:41:13;;;;;;;6.20;2.07;;;14.90;99.90;;;;;;5053919;28;20400;-67
2021/05/12 11:43:54;;;;;;;5.17;1.80;;;14.90;99.90;;;;;;5053197;28;20488;-66
2021/05/12 11:46:24;;;;;;;5.30;1.53;;;15.00;99.90;;;;;;5035755;28;20394;-66
2021/05/12 11:48:57;;;;;;;5.50;1.83;;;15.10;99.90;;;;;;5054131;28;20767;-68
2021/05/12 11:51:28;;;;;;;6.50;1.63;;;15.10;99.90;;;;;;5053610;28;20400;-69
2021/05/12 11:53:54;;;;;;;6.20;1.70;;;15.20;99.90;;;;;;5040497;28;20574;-67
2021/05/12 11:56:20;;;;;;;5.17;2.27;;;15.30;99.90;;;;;;5033297;28;20413;-68
2021/05/12 11:58:57;;;;;;;6.30;1.80;;;15.30;99.90;;;;;;5033496;28;20921;-69
2021/05/12 12:01:23;;;;;;;4.43;1.23;;;15.30;99.90;;;;;;5030271;28;20567;-68
2021/05/12 12:06:39;;;;;;;5.50;1.40;;;15.60;99.90;;;;;;5053421;28;21045;-66
2021/05/12 12:09:05;;;;;;;5.60;2.27;;;15.70;99.90;;;;;;5035076;28;20421;-67
2021/05/12 12:11:33;;;;;;;5.60;1.90;;;15.90;99.90;;;;;;5053047;28;20415;-68
2021/05/12 12:14:00;;;;;;;6.90;2.70;;;16.10;99.90;;;;;;5052577;28;20182;-68
2021/05/12 12:16:26;;;;;;;7.40;1.83;;;16.30;99.90;;;;;;5052339;28;20423;-69
2021/05/12 12:18:52;;;;;;;6.10;2.27;;;16.40;99.90;;;;;;5052983;28;20409;-68
2021/05/12 12:21:30;;;;;;;4.63;1.53;;;16.50;99.90;;;;;;5053099;28;20403;-69
2021/05/12 12:23:57;;;;;;;4.77;1.90;;;16.70;99.90;;;;;;5042496;28;20260;-68
2021/05/12 12:26:24;;;;;;;5.20;1.87;;;16.90;99.90;;;;;;5033040;28;20779;-69
2021/05/12 12:29:05;;;;;;;5.00;1.73;;;17.10;99.90;;;;;;5033053;28;20413;-68
2021/05/12 12:31:41;;;;;;;5.30;1.90;;;17.20;99.90;;;;;;5049236;28;20412;-68
2021/05/12 12:34:11;;;;;;;7.00;2.13;;;17.40;99.90;;;;;;5052376;28;20747;-69
2021/05/12 12:37:09;;;;;;;4.70;1.80;;;17.60;99.90;;;;;;5053123;28;20408;-67
2021/05/12 12:39:38;;;;;;;6.07;1.67;;;17.50;99.90;;;;;;5048076;28;20439;-68
2021/05/12 12:42:05;;;;;;;5.20;1.97;;;17.50;99.90;;;;;;5034878;28;20415;-67
2021/05/12 12:44:40;;;;;;;6.10;1.50;;;17.60;99.90;;;;;;5051843;28;20463;-69
2021/05/12 12:47:14;;;;;;;5.53;2.27;;;17.60;99.90;;;;;;5052835;28;20765;-69
2021/05/12 12:49:47;;;;;;;6.10;1.87;;;17.60;99.90;;;;;;5052696;28;20400;-67
2021/05/12 12:52:20;;;;;;;4.80;1.33;;;17.60;99.90;;;;;;5034636;28;20455;-69
2021/05/12 12:54:54;;;;;;;5.83;1.80;;;17.60;99.90;;;;;;5052172;28;20786;-67
2021/05/12 12:57:20;;;;;;;5.67;1.93;;;17.60;99.90;;;;;;5052793;28;20485;-68
2021/05/12 13:00:04;;;;;;;4.37;1.77;;;17.60;99.90;;;;;;5051793;28;20443;-68
2021/05/12 13:02:29;;;;;;;4.97;1.40;;;17.50;99.90;;;;;;5051560;28;20431;-68